Time;durP1;ratioP1;P1;durP2;ratioP2;P2;SDS_P1;SDS_P2;PMS_P1;PMS_P2;Temp;Humidity;BMP_temperature;BMP_pressure;BME280_temperature;BME280_humidity;BME280_pressure;Samples;Min_cycle;Max_cycle;Signal;HPM_P1;HPM_P2
2023/03/01 00:04:35;;;;;;;92.80;47.30;;;;;;;1.18;60.49;100302.15;235272;1196;138577;-72
2023/03/01 00:09:39;;;;;;;89.50;46.40;;;;;;;1.15;60.55;100300.06;235346;1196;138506;-71
2023/03/01 00:14:43;;;;;;;82.20;44.10;;;;;;;1.10;60.76;100292.73;235170;1192;139091;-71
2023/03/01 00:19:46;;;;;;;86.40;44.90;;;;;;;1.07;60.87;100293.80;235226;1192;138373;-70
2023/03/01 00:31:56;;;;;;;84.70;44.70;;;;;;;1.03;60.72;100288.40;235345;1192;138104;-71
2023/03/01 00:37:04;;;;;;;90.50;46.50;;;;;;;1.02;60.86;100286.30;235293;1193;138324;-71
2023/03/01 00:42:08;;;;;;;92.20;46.70;;;;;;;0.95;60.75;100284.04;235430;1192;138427;-72
2023/03/01 00:47:11;;;;;;;89.90;46.20;;;;;;;0.96;60.90;100276.19;235383;1192;139987;-72
2023/03/01 00:52:14;;;;;;;80.80;42.70;;;;;;;1.00;60.89;100272.51;235335;1193;138978;-71
2023/03/01 00:57:18;;;;;;;72.20;38.20;;;;;;;1.02;60.74;100261.14;235312;1193;138535;-71
2023/03/01 01:02:22;;;;;;;79.10;41.50;;;;;;;1.01;60.49;100257.82;235448;1193;138794;-71
2023/03/01 01:07:26;;;;;;;75.70;41.00;;;;;;;0.99;60.67;100260.63;235412;1192;138448;-71
2023/03/01 01:12:30;;;;;;;74.80;40.80;;;;;;;0.94;60.82;100266.77;235422;1193;138904;-71
2023/03/01 01:17:33;;;;;;;78.10;39.60;;;;;;;0.92;60.79;100262.75;235282;1192;138944;-71
2023/03/01 01:22:37;;;;;;;77.10;40.50;;;;;;;0.90;60.91;100255.75;235519;1193;138397;-71
2023/03/01 01:27:41;;;;;;;77.40;40.90;;;;;;;0.84;60.82;100255.95;235567;1193;138293;-71
2023/03/01 01:32:44;;;;;;;70.00;37.70;;;;;;;0.83;61.04;100247.23;235275;1193;140325;-72
2023/03/01 01:37:47;;;;;;;79.80;39.80;;;;;;;0.78;61.06;100241.82;235071;1196;138984;-71
2023/03/01 01:42:51;;;;;;;73.60;40.20;;;;;;;0.74;61.19;100238.19;235329;1192;138947;-72
2023/03/01 01:48:00;;;;;;;69.90;38.80;;;;;;;0.71;60.94;100237.99;235446;1192;138643;-71
2023/03/01 01:53:12;;;;;;;76.20;39.50;;;;;;;0.69;61.25;100235.56;235351;1193;139193;-72
2023/03/01 01:58:19;;;;;;;64.50;35.50;;;;;;;0.68;61.30;100231.90;233380;1193;138747;-73
2023/03/01 02:03:32;;;;;;;65.70;35.20;;;;;;;0.65;61.29;100228.95;235365;1193;138691;-71
2023/03/01 02:08:41;;;;;;;65.50;34.70;;;;;;;0.60;61.41;100220.75;235273;1193;139190;-71
2023/03/01 02:13:44;;;;;;;68.60;37.90;;;;;;;0.56;61.65;100228.09;235318;1194;138765;-71
2023/03/01 02:18:50;;;;;;;73.60;40.20;;;;;;;0.56;61.68;100233.86;235488;1192;142224;-71
2023/03/01 02:23:55;;;;;;;69.50;38.30;;;;;;;0.50;61.60;100227.92;235220;1193;138731;-70
2023/03/01 02:28:59;;;;;;;71.80;38.30;;;;;;;0.44;61.61;100236.66;235227;1193;138489;-71
2023/03/01 02:34:04;;;;;;;73.60;40.20;;;;;;;0.42;61.84;100240.69;235406;1193;140070;-69
2023/03/01 02:39:14;;;;;;;71.50;38.20;;;;;;;0.41;61.89;100240.17;235375;1192;138789;-70
2023/03/01 02:44:17;;;;;;;71.00;37.50;;;;;;;0.36;61.86;100238.77;235249;1192;138988;-70
2023/03/01 02:49:24;;;;;;;75.50;40.10;;;;;;;0.32;62.02;100236.34;235350;1192;139099;-70
2023/03/01 02:54:38;;;;;;;73.80;39.60;;;;;;;0.31;62.01;100240.36;235230;1196;139984;-70
2023/03/01 02:59:43;;;;;;;72.10;37.70;;;;;;;0.30;62.09;100235.64;235196;1193;138546;-71
2023/03/01 03:04:46;;;;;;;75.80;40.10;;;;;;;0.31;61.89;100235.83;235354;1193;139282;-71
2023/03/01 03:09:50;;;;;;;71.90;39.80;;;;;;;0.26;62.02;100230.06;235376;1193;139371;-71
2023/03/01 03:14:54;;;;;;;70.80;39.20;;;;;;;0.22;62.14;100224.13;235377;1192;138235;-71
2023/03/01 03:19:57;;;;;;;68.10;38.40;;;;;;;0.21;62.18;100221.52;235173;1193;138865;-71
2023/03/01 03:25:01;;;;;;;80.30;40.90;;;;;;;0.19;62.25;100216.45;235368;1193;138945;-71
2023/03/01 03:30:12;;;;;;;75.70;40.30;;;;;;;0.16;62.30;100217.67;235350;1193;138453;-71
2023/03/01 03:35:15;;;;;;;76.80;41.30;;;;;;;0.16;62.13;100218.21;235339;1192;139196;-71
2023/03/01 03:40:18;;;;;;;70.20;39.40;;;;;;;0.14;62.07;100225.00;235354;1193;138259;-71
2023/03/01 03:45:22;;;;;;;66.60;38.40;;;;;;;0.08;62.18;100225.54;235485;1191;139523;-71
2023/03/01 03:50:26;;;;;;;73.30;38.80;;;;;;;0.04;62.35;100227.47;235490;1193;138946;-71
2023/03/01 03:55:30;;;;;;;73.10;38.40;;;;;;;0.05;62.32;100226.75;233933;1192;138671;-72
2023/03/01 04:00:36;;;;;;;75.20;37.40;;;;;;;0.04;62.20;100228.34;234678;1195;138948;-72
2023/03/01 04:05:41;;;;;;;65.70;36.20;;;;;;;-0.00;62.25;100224.49;235278;1193;138230;-73
2023/03/01 04:10:47;;;;;;;74.30;39.90;;;;;;;-0.09;62.23;100220.65;235187;1194;139473;-72
2023/03/01 04:15:53;;;;;;;73.70;37.30;;;;;;;-0.11;62.37;100218.20;235359;1192;139219;-72
2023/03/01 04:20:56;;;;;;;74.50;39.00;;;;;;;-0.10;62.59;100231.11;235539;1193;139287;-72
2023/03/01 04:25:59;;;;;;;78.40;39.90;;;;;;;-0.09;62.57;100221.17;233477;1192;138708;-73
2023/03/01 04:31:12;;;;;;;77.90;40.10;;;;;;;-0.11;62.59;100224.66;235448;1192;139042;-71
2023/03/01 04:36:17;;;;;;;73.90;39.10;;;;;;;-0.10;62.87;100220.13;235323;1193;139766;-71
2023/03/01 04:41:22;;;;;;;72.10;39.80;;;;;;;-0.07;62.95;100215.42;235410;1193;139355;-71
2023/03/01 04:46:26;;;;;;;73.30;39.10;;;;;;;-0.09;62.71;100207.58;235502;1193;138579;-71
2023/03/01 04:51:29;;;;;;;71.70;38.90;;;;;;;-0.12;62.70;100201.81;233165;1193;139017;-72
2023/03/01 04:56:32;;;;;;;74.50;39.00;;;;;;;-0.13;62.70;100201.30;235464;1196;138606;-73
2023/03/01 05:01:36;;;;;;;73.00;38.70;;;;;;;-0.15;62.84;100197.10;235379;1192;139122;-72
2023/03/01 05:06:40;;;;;;;69.20;38.20;;;;;;;-0.12;63.05;100207.74;235375;1192;138324;-77
2023/03/01 05:11:43;;;;;;;291.30;169.70;;;;;;;-0.06;63.34;100206.70;235234;1193;139892;-70
2023/03/01 05:16:47;;;;;;;85.00;47.20;;;;;;;-0.01;62.87;100190.48;235246;1192;139796;-70
2023/03/01 05:22:06;;;;;;;73.50;38.80;;;;;;;-0.03;62.77;100188.91;235307;1195;139220;-72
2023/03/01 05:27:09;;;;;;;72.00;38.60;;;;;;;0.05;62.75;100192.05;234259;1193;138708;-69
2023/03/01 05:32:15;;;;;;;75.30;38.60;;;;;;;0.03;62.68;100197.97;233083;1192;138884;-73
2023/03/01 05:37:19;;;;;;;76.40;43.90;;;;;;;0.03;62.60;100203.55;235472;1192;141027;-71
2023/03/01 05:42:22;;;;;;;68.80;38.00;;;;;;;0.07;63.13;100210.18;235410;1193;138890;-70
2023/03/01 05:47:26;;;;;;;72.10;37.00;;;;;;;0.08;62.85;100208.45;235332;1193;139312;-70
2023/03/01 05:52:29;;;;;;;74.70;37.30;;;;;;;0.03;62.78;100208.26;235264;1193;138613;-70
2023/03/01 05:57:32;;;;;;;74.20;39.30;;;;;;;0.03;62.84;100203.55;235154;1193;140004;-71
2023/03/01 06:02:35;;;;;;;72.60;40.30;;;;;;;0.07;63.06;100204.77;235148;1196;139532;-70
2023/03/01 06:07:39;;;;;;;69.00;38.30;;;;;;;0.13;62.98;100210.89;234832;1193;139417;-70
2023/03/01 06:12:43;;;;;;;70.00;38.80;;;;;;;0.14;63.06;100209.48;235401;1195;138677;-71
2023/03/01 06:17:47;;;;;;;106.70;56.70;;;;;;;0.19;63.57;100212.27;235270;1192;138745;-73
2023/03/01 06:22:51;;;;;;;85.20;41.50;;;;;;;0.35;63.38;100215.55;233429;1193;139197;-73
2023/03/01 06:27:54;;;;;;;73.00;39.40;;;;;;;0.39;63.17;100213.63;235224;1195;138814;-72
2023/03/01 06:33:00;;;;;;;75.40;37.40;;;;;;;0.41;63.33;100215.91;235633;1192;139083;-73
2023/03/01 06:38:05;;;;;;;65.30;37.50;;;;;;;0.45;63.43;100211.52;235093;1194;139469;-73
2023/03/01 06:43:08;;;;;;;67.50;37.90;;;;;;;0.51;63.61;100209.06;235279;1194;138845;-73
2023/03/01 06:48:11;;;;;;;70.60;37.80;;;;;;;0.59;63.61;100203.80;235305;1196;138676;-74
2023/03/01 06:53:15;;;;;;;69.40;38.70;;;;;;;0.70;63.46;100202.91;235392;1193;140011;-73
2023/03/01 06:58:18;;;;;;;79.70;41.40;;;;;;;0.82;63.61;100202.52;235257;1193;139590;-72
2023/03/01 07:03:22;;;;;;;65.20;35.90;;;;;;;1.00;63.75;100197.54;234150;1194;138911;-73
2023/03/01 07:08:26;;;;;;;60.40;33.90;;;;;;;1.19;62.73;100186.61;234717;1192;138553;-71
2023/03/01 07:13:29;;;;;;;61.40;33.20;;;;;;;1.37;62.24;100178.30;235237;1192;139456;-72
2023/03/01 07:18:33;;;;;;;61.20;33.70;;;;;;;1.56;61.47;100174.32;232712;1195;138660;-73
2023/03/01 07:23:37;;;;;;;54.10;31.20;;;;;;;1.74;60.95;100164.92;232830;1193;138894;-72
2023/03/01 07:28:40;;;;;;;115.10;65.50;;;;;;;1.83;60.81;100163.61;235359;1196;138903;-72
2023/03/01 07:33:44;;;;;;;61.70;34.40;;;;;;;1.92;60.96;100158.11;235363;1196;138752;-73
2023/03/01 07:38:47;;;;;;;56.60;31.10;;;;;;;1.99;60.05;100161.20;235068;1194;138574;-69
2023/03/01 07:43:50;;;;;;;50.50;30.20;;;;;;;2.08;59.60;100169.34;235348;1196;139157;-70
2023/03/01 07:48:53;;;;;;;55.30;32.20;;;;;;;2.19;59.07;100170.82;235411;1193;139115;-68
2023/03/01 07:53:56;;;;;;;56.80;31.80;;;;;;;2.33;59.24;100171.55;235508;1196;138441;-69
2023/03/01 07:59:00;;;;;;;50.50;29.80;;;;;;;2.47;58.76;100172.96;235317;1195;140280;-68
2023/03/01 08:04:06;;;;;;;54.30;30.50;;;;;;;2.63;58.68;100168.59;235309;1192;138591;-69
2023/03/01 08:09:10;;;;;;;56.10;31.80;;;;;;;2.81;58.81;100163.11;235602;1194;138714;-69
2023/03/01 08:14:13;;;;;;;65.30;35.60;;;;;;;3.01;58.89;100154.45;235445;1193;138402;-69
2023/03/01 08:19:17;;;;;;;54.80;32.50;;;;;;;3.17;58.89;100151.95;234617;1196;138775;-69
2023/03/01 08:24:20;;;;;;;57.30;32.80;;;;;;;3.31;58.68;100147.02;235328;1196;138932;-69
2023/03/01 08:29:26;;;;;;;57.10;32.70;;;;;;;3.48;58.54;100148.52;235230;1193;139045;-69
2023/03/01 08:34:31;;;;;;;59.80;32.50;;;;;;;3.64;58.19;100139.49;235181;1197;138882;-69
2023/03/01 08:39:34;;;;;;;61.20;33.80;;;;;;;3.77;57.60;100138.06;235781;1193;138941;-70
2023/03/01 08:44:37;;;;;;;49.20;26.90;;;;;;;3.89;57.20;100131.36;235553;1195;138512;-69
2023/03/01 08:49:41;;;;;;;36.00;22.50;;;;;;;4.06;55.03;100128.23;235386;1195;139833;-69
2023/03/01 08:54:45;;;;;;;45.80;24.70;;;;;;;4.08;53.65;100121.55;234893;1192;140254;-68
2023/03/01 08:59:48;;;;;;;45.40;25.60;;;;;;;4.18;54.40;100122.41;235548;1195;139320;-69
2023/03/01 09:04:51;;;;;;;47.20;26.70;;;;;;;4.34;53.77;100127.55;235508;1192;139171;-69
2023/03/01 09:09:54;;;;;;;45.60;28.60;;;;;;;4.49;54.31;100129.73;235458;1195;138412;-69
2023/03/01 09:15:01;;;;;;;50.30;29.10;;;;;;;4.61;54.56;100124.04;235572;1195;139032;-69
2023/03/01 09:20:08;;;;;;;55.50;29.30;;;;;;;4.73;54.37;100113.61;235264;1193;138496;-69
2023/03/01 09:25:20;;;;;;;42.20;25.00;;;;;;;4.88;53.36;100111.34;235726;1193;138469;-69
2023/03/01 09:30:24;;;;;;;48.50;26.70;;;;;;;4.94;51.85;100109.09;234772;1195;139251;-69
2023/03/01 09:35:27;;;;;;;46.60;26.60;;;;;;;5.04;51.54;100109.40;235486;1195;138802;-69
2023/03/01 09:40:31;;;;;;;46.70;26.90;;;;;;;5.27;51.78;100115.21;235234;1193;138717;-69
2023/03/01 09:45:39;;;;;;;49.20;23.10;;;;;;;5.45;51.20;100117.08;235424;1197;139170;-69
2023/03/01 09:50:46;;;;;;;31.50;18.60;;;;;;;5.60;50.87;100117.09;235312;1193;138846;-69
2023/03/01 09:56:00;;;;;;;33.20;18.20;;;;;;;5.73;50.66;100115.88;235383;1193;138822;-69
2023/03/01 10:01:23;;;;;;;24.40;15.10;;;;;;;5.84;49.87;100113.31;235322;1195;139999;-69
2023/03/01 10:06:26;;;;;;;26.50;16.30;;;;;;;6.00;49.45;100114.52;235293;1193;138904;-69
2023/03/01 10:11:41;;;;;;;18.30;11.60;;;;;;;6.16;49.21;100113.56;235239;1193;138764;-69
2023/03/01 10:16:58;;;;;;;25.90;13.90;;;;;;;6.34;47.42;100109.03;235454;1196;139334;-69
2023/03/01 10:22:21;;;;;;;19.60;12.40;;;;;;;6.50;46.48;100103.46;235371;1193;138737;-69
2023/03/01 10:27:34;;;;;;;24.30;13.20;;;;;;;6.68;46.36;100094.13;235500;1195;139667;-69
2023/03/01 10:32:38;;;;;;;18.40;11.90;;;;;;;6.84;45.56;100094.71;235214;1193;138710;-69
2023/03/01 10:37:57;;;;;;;21.30;11.90;;;;;;;7.01;44.42;100091.90;235678;1196;138575;-69
2023/03/01 10:43:04;;;;;;;28.90;16.70;;;;;;;7.19;44.73;100087.13;234786;1193;138549;-71
2023/03/01 10:48:24;;;;;;;28.80;17.60;;;;;;;7.47;45.90;100081.98;235537;1195;138690;-69
2023/03/01 10:53:33;;;;;;;28.80;17.60;;;;;;;7.82;45.54;100078.53;235188;1196;138807;-69
2023/03/01 10:58:38;;;;;;;121.20;75.80;;;;;;;8.10;45.53;100072.96;235156;1195;139112;-69
2023/03/01 11:03:41;;;;;;;33.20;20.00;;;;;;;8.40;45.15;100064.49;235348;1196;138953;-69
2023/03/01 11:08:47;;;;;;;36.00;21.20;;;;;;;8.56;44.70;100056.48;235180;1193;139084;-70
2023/03/01 11:14:03;;;;;;;;;;;;;;;8.70;44.90;100045.50;235219;1193;139064;-69
2023/03/01 11:19:21;;;;;;;34.70;23.10;;;;;;;8.78;44.76;100044.66;235430;1196;125708;-70
2023/03/01 11:24:36;;;;;;;39.10;25.40;;;;;;;8.82;44.37;100041.70;235350;1196;138689;-69
2023/03/01 11:29:46;;;;;;;;;;;;;;;8.80;43.56;100039.30;235384;1196;139666;-69
2023/03/01 11:34:59;;;;;;;39.30;24.00;;;;;;;8.67;43.76;100039.26;235122;1193;125607;-69
2023/03/01 11:40:11;;;;;;;37.80;23.40;;;;;;;8.67;43.50;100033.61;235372;1196;138699;-69
2023/03/01 11:45:15;;;;;;;35.90;22.50;;;;;;;8.64;43.42;100029.64;235568;1196;139288;-69
2023/03/01 11:50:34;;;;;;;33.20;20.40;;;;;;;8.71;42.95;100028.52;235280;1196;139009;-69
2023/03/01 11:56:15;;;;;;;32.30;21.10;;;;;;;8.89;42.39;100015.74;235251;1196;138717;-69
2023/03/01 12:01:39;;;;;;;29.10;18.90;;;;;;;9.14;41.54;100003.45;235157;1193;139221;-68
2023/03/01 12:07:00;;;;;;;28.50;17.80;;;;;;;9.35;40.99;100003.13;235286;1192;139094;-67
2023/03/01 12:12:25;;;;;;;23.50;16.80;;;;;;;9.60;39.84;99998.86;235433;1196;139004;-69
2023/03/01 12:17:38;;;;;;;25.30;16.20;;;;;;;9.88;39.26;99993.25;235281;1195;139462;-69
2023/03/01 12:22:53;;;;;;;26.50;17.00;;;;;;;10.14;38.65;99989.59;233121;1194;138469;-71
2023/03/01 12:28:22;;;;;;;22.80;15.20;;;;;;;10.32;37.83;99985.06;232872;1193;141696;-70
2023/03/01 12:33:50;;;;;;;26.00;16.40;;;;;;;10.43;38.09;99983.50;235322;1192;139830;-70
2023/03/01 12:39:16;;;;;;;29.30;17.90;;;;;;;10.45;37.60;99967.96;235235;1196;139602;-69
2023/03/01 12:44:46;;;;;;;29.00;17.10;;;;;;;10.41;37.16;99954.14;235327;1193;138835;-69
2023/03/01 12:49:57;;;;;;;29.50;18.80;;;;;;;10.34;37.19;99948.99;235367;1196;138667;-71
2023/03/01 12:55:06;;;;;;;32.70;17.90;;;;;;;10.30;37.21;99947.58;233251;1193;138791;-70
2023/03/01 13:00:28;;;;;;;27.70;16.20;;;;;;;10.33;37.26;99943.86;235283;1193;138727;-69
2023/03/01 13:05:42;;;;;;;31.10;19.40;;;;;;;10.48;36.92;99938.38;235235;1193;138894;-69
2023/03/01 13:11:16;;;;;;;26.50;18.20;;;;;;;10.61;37.67;99941.84;235253;1196;138906;-70
2023/03/01 13:16:39;;;;;;;26.70;18.10;;;;;;;10.79;37.09;99943.16;235244;1196;138949;-69
2023/03/01 13:21:44;;;;;;;32.30;18.80;;;;;;;10.95;37.33;99946.44;235356;1193;138943;-70
2023/03/01 13:27:06;;;;;;;;;;;;;;;11.07;36.88;99937.14;235229;1193;141257;-69
2023/03/01 13:32:31;;;;;;;25.50;17.50;;;;;;;11.24;35.98;99934.52;235393;1196;126627;-68
2023/03/01 13:37:50;;;;;;;25.20;17.50;;;;;;;11.37;35.83;99929.77;235242;1193;138589;-71
2023/03/01 13:42:55;;;;;;;28.10;16.00;;;;;;;11.36;35.43;99921.09;235422;1193;138884;-70
2023/03/01 13:48:23;;;;;;;22.50;15.40;;;;;;;11.18;35.19;99912.08;235074;1196;138632;-70
2023/03/01 13:53:33;;;;;;;20.80;14.40;;;;;;;10.82;35.36;99915.29;235168;1193;139122;-71
2023/03/01 13:58:55;;;;;;;23.10;14.00;;;;;;;10.45;35.51;99906.79;235132;1193;139570;-68
2023/03/01 14:03:59;;;;;;;21.00;14.00;;;;;;;10.12;35.71;99904.39;235282;1193;138614;-68
2023/03/01 14:09:08;;;;;;;27.90;14.40;;;;;;;9.88;35.79;99903.88;235510;1193;138541;-69
2023/03/01 14:14:21;;;;;;;18.70;12.20;;;;;;;9.69;36.38;99897.11;235541;1192;138758;-68
2023/03/01 14:19:29;;;;;;;21.90;14.30;;;;;;;9.48;35.95;99891.88;235524;1192;138375;-68
2023/03/01 14:24:39;;;;;;;21.90;14.60;;;;;;;9.27;36.81;99890.98;235381;1193;138344;-69
2023/03/01 14:29:44;;;;;;;19.00;12.30;;;;;;;9.13;36.93;99887.52;231488;1193;138637;-70
2023/03/01 14:34:50;;;;;;;20.20;12.40;;;;;;;8.96;36.65;99884.87;235251;1193;139117;-69
2023/03/01 14:39:55;;;;;;;23.70;14.30;;;;;;;8.81;36.64;99887.26;235371;1192;138655;-69
2023/03/01 14:45:01;;;;;;;22.50;14.50;;;;;;;8.70;37.15;99890.04;235498;1192;138799;-69
2023/03/01 14:50:21;;;;;;;26.20;13.40;;;;;;;8.64;37.95;99890.27;235287;1193;138709;-70
2023/03/01 14:55:44;;;;;;;20.40;12.00;;;;;;;8.56;37.40;99887.21;235246;1196;138408;-69
2023/03/01 15:01:04;;;;;;;21.30;12.00;;;;;;;8.49;37.00;99891.90;235196;1199;139582;-69
2023/03/01 15:06:08;;;;;;;20.40;12.30;;;;;;;8.42;37.47;99884.95;235308;1193;138232;-69
2023/03/01 15:11:24;;;;;;;26.10;12.20;;;;;;;8.34;38.01;99880.83;235373;1192;138995;-69
2023/03/01 15:16:33;;;;;;;17.30;10.80;;;;;;;8.25;37.86;99885.75;235357;1193;138359;-69
2023/03/01 15:21:38;;;;;;;21.70;11.10;;;;;;;8.17;38.36;99885.17;235454;1193;138567;-68
2023/03/01 15:26:46;;;;;;;22.00;11.70;;;;;;;8.08;38.50;99877.21;235220;1192;138602;-68
2023/03/01 15:32:04;;;;;;;18.00;10.70;;;;;;;8.00;38.39;99883.54;235364;1192;138184;-68
2023/03/01 15:37:53;;;;;;;19.10;11.20;;;;;;;7.95;38.26;99883.20;235351;1192;138061;-68
2023/03/01 15:43:17;;;;;;;21.10;10.70;;;;;;;7.86;38.46;99879.48;235405;1191;139131;-68
2023/03/01 15:48:21;;;;;;;21.10;10.90;;;;;;;7.76;38.51;99875.94;235322;1193;139638;-68
2023/03/01 15:53:24;;;;;;;21.30;11.90;;;;;;;7.66;38.88;99878.80;235274;1196;139079;-68
2023/03/01 15:58:28;;;;;;;29.20;10.70;;;;;;;7.56;38.40;99871.54;235408;1193;144043;-67
2023/03/01 16:03:31;;;;;;;21.30;10.80;;;;;;;7.53;38.65;99876.98;235482;1196;138679;-68
2023/03/01 16:08:34;;;;;;;25.60;11.80;;;;;;;7.41;39.06;99882.70;235218;1195;138310;-68
2023/03/01 16:13:38;;;;;;;20.30;11.70;;;;;;;7.27;39.28;99889.36;235315;1192;138699;-69
2023/03/01 16:18:45;;;;;;;26.40;10.90;;;;;;;7.15;38.97;99891.02;234938;1195;139294;-68
2023/03/01 16:31:31;;;;;;;27.10;12.20;;;;;;;6.84;39.29;99904.23;235507;1192;138453;-68
2023/03/01 16:36:36;;;;;;;33.90;12.90;;;;;;;6.71;39.57;99902.71;235167;1192;138667;-67
2023/03/01 16:41:40;;;;;;;26.50;12.90;;;;;;;6.59;39.83;99910.50;235308;1193;138820;-67
2023/03/01 16:46:43;;;;;;;25.00;12.70;;;;;;;6.47;40.07;99913.16;235177;1193;141290;-68
2023/03/01 16:51:46;;;;;;;25.20;11.90;;;;;;;6.36;40.20;99912.98;235518;1193;139054;-68
2023/03/01 16:56:50;;;;;;;23.10;12.60;;;;;;;6.25;40.87;99909.63;235365;1196;139541;-68
2023/03/01 17:01:53;;;;;;;23.10;12.00;;;;;;;6.17;41.02;99911.83;235311;1192;138643;-67
2023/03/01 17:06:56;;;;;;;27.40;13.90;;;;;;;6.05;41.94;99915.16;235273;1192;138445;-68
2023/03/01 17:11:59;;;;;;;28.30;13.70;;;;;;;5.93;42.13;99913.02;235423;1193;138372;-67
2023/03/01 17:17:03;;;;;;;29.90;14.50;;;;;;;5.84;42.70;99919.96;235264;1192;139465;-68
2023/03/01 17:22:06;;;;;;;35.10;15.10;;;;;;;5.72;43.34;99919.77;235307;1193;138642;-68
2023/03/01 17:27:12;;;;;;;31.00;14.70;;;;;;;5.62;43.42;99922.16;235511;1192;139169;-67
2023/03/01 17:32:15;;;;;;;30.40;14.40;;;;;;;5.54;43.39;99915.52;235234;1192;138578;-70
2023/03/01 17:37:19;;;;;;;32.90;15.20;;;;;;;5.45;43.93;99917.69;235309;1192;139295;-68
2023/03/01 17:42:23;;;;;;;26.70;15.40;;;;;;;5.35;44.53;99919.38;235398;1192;138889;-67
2023/03/01 17:47:26;;;;;;;34.40;17.20;;;;;;;5.24;45.10;99925.13;235409;1195;138666;-68
2023/03/01 17:52:30;;;;;;;35.50;18.00;;;;;;;5.12;45.53;99930.54;235274;1192;138512;-68
2023/03/01 17:57:34;;;;;;;44.90;17.10;;;;;;;5.03;45.81;99932.52;235443;1193;138692;-68
2023/03/01 18:02:37;;;;;;;42.00;17.50;;;;;;;4.92;46.11;99928.04;235205;1192;138895;-68
2023/03/01 18:07:41;;;;;;;39.30;16.30;;;;;;;4.83;46.90;99928.42;235264;1192;138766;-68
2023/03/01 18:12:44;;;;;;;32.40;15.70;;;;;;;4.75;48.27;99920.55;235255;1193;139114;-69
2023/03/01 18:17:48;;;;;;;359.00;213.60;;;;;;;4.65;47.79;99923.41;235420;1193;138651;-68
2023/03/01 18:22:51;;;;;;;50.30;22.20;;;;;;;4.63;48.20;99925.39;235313;1193;139856;-68
2023/03/01 18:27:54;;;;;;;39.30;20.50;;;;;;;4.54;48.20;99922.27;235446;1193;138783;-68
2023/03/01 18:32:58;;;;;;;51.00;24.60;;;;;;;4.43;48.28;99913.75;235183;1192;138590;-68
2023/03/01 18:38:01;;;;;;;49.40;23.80;;;;;;;4.34;48.42;99914.98;235363;1192;139067;-69
2023/03/01 18:43:04;;;;;;;54.20;24.20;;;;;;;4.25;48.84;99913.10;235216;1196;138710;-68
2023/03/01 18:48:08;;;;;;;44.50;22.50;;;;;;;4.14;49.47;99907.36;234849;1193;138971;-68
2023/03/01 18:53:11;;;;;;;51.70;23.20;;;;;;;4.05;50.01;99909.84;235323;1192;139068;-68
2023/03/01 18:58:14;;;;;;;52.80;23.70;;;;;;;3.97;50.37;99905.27;235290;1196;138662;-68
2023/03/01 19:03:18;;;;;;;53.30;23.90;;;;;;;3.90;50.59;99897.69;235482;1193;139320;-67
2023/03/01 19:08:21;;;;;;;50.00;23.60;;;;;;;3.86;50.98;99893.73;235333;1193;139971;-67
2023/03/01 19:13:26;;;;;;;56.40;26.40;;;;;;;3.79;50.85;99894.41;235358;1193;140298;-68
2023/03/01 19:18:29;;;;;;;71.00;27.60;;;;;;;3.74;51.01;99898.55;235308;1192;138852;-68
2023/03/01 19:23:34;;;;;;;72.40;30.00;;;;;;;3.61;51.65;99894.08;235380;1192;138987;-67
2023/03/01 19:28:37;;;;;;;74.90;32.00;;;;;;;3.54;52.16;99893.69;235274;1192;138471;-67
2023/03/01 19:33:42;;;;;;;76.70;33.40;;;;;;;3.44;52.34;99894.40;235387;1192;138423;-68
2023/03/01 19:38:47;;;;;;;78.30;34.70;;;;;;;3.39;53.14;99896.08;235247;1193;139228;-71
2023/03/01 19:43:51;;;;;;;74.70;39.60;;;;;;;3.31;53.37;99905.00;235304;1193;139729;-66
2023/03/01 19:48:54;;;;;;;85.90;37.10;;;;;;;3.32;54.39;99903.77;235185;1193;138548;-66
2023/03/01 19:53:57;;;;;;;72.10;36.30;;;;;;;3.28;54.10;99906.10;235256;1193;140990;-65
2023/03/01 19:59:03;;;;;;;73.60;35.80;;;;;;;3.18;53.92;99906.11;234379;1193;139436;-66
2023/03/01 20:04:08;;;;;;;70.30;35.70;;;;;;;3.10;54.03;99907.84;235211;1196;139872;-66
2023/03/01 20:09:13;;;;;;;77.90;36.20;;;;;;;3.10;55.25;99911.17;235044;1196;138579;-66
2023/03/01 20:14:23;;;;;;;81.20;37.20;;;;;;;3.07;54.39;99915.61;235017;1193;138605;-66
2023/03/01 20:19:27;;;;;;;75.10;37.70;;;;;;;3.01;54.33;99912.91;234980;1193;139348;-66
2023/03/01 20:24:30;;;;;;;107.30;57.60;;;;;;;2.97;54.99;99912.95;234346;1193;138429;-66
2023/03/01 20:29:34;;;;;;;83.80;39.10;;;;;;;3.02;55.40;99918.83;235178;1193;139612;-66
2023/03/01 20:34:38;;;;;;;71.40;38.20;;;;;;;3.01;54.69;99915.70;235449;1192;138369;-69
2023/03/01 20:39:41;;;;;;;72.20;36.80;;;;;;;2.92;54.88;99910.59;235487;1192;139095;-66
2023/03/01 20:44:45;;;;;;;71.80;36.60;;;;;;;2.83;54.98;99912.15;235165;1193;138803;-67
2023/03/01 20:49:51;;;;;;;70.30;37.40;;;;;;;2.75;55.48;99916.48;235386;1194;139069;-67
2023/03/01 20:54:55;;;;;;;70.60;37.00;;;;;;;2.67;55.88;99912.94;235171;1196;138780;-67
2023/03/01 20:59:58;;;;;;;73.50;37.40;;;;;;;2.60;56.03;99910.95;235413;1193;138537;-67
2023/03/01 21:05:01;;;;;;;70.40;38.20;;;;;;;2.57;56.03;99904.51;235211;1193;138570;-66
2023/03/01 21:10:06;;;;;;;77.60;41.00;;;;;;;2.53;56.30;99909.98;235348;1192;138819;-67
2023/03/01 21:15:09;;;;;;;82.00;42.90;;;;;;;2.50;56.63;99906.38;235202;1193;139245;-67
2023/03/01 21:20:23;;;;;;;93.80;43.40;;;;;;;2.48;56.89;99900.98;235339;1193;138902;-67
2023/03/01 21:25:33;;;;;;;81.40;43.50;;;;;;;2.44;57.07;99903.31;235243;1196;138820;-68
2023/03/01 21:30:37;;;;;;;85.00;46.00;;;;;;;2.40;56.95;99906.52;235427;1196;138529;-68
2023/03/01 21:35:40;;;;;;;91.80;46.10;;;;;;;2.38;56.99;99907.95;235352;1193;139224;-70
2023/03/01 21:40:43;;;;;;;88.10;46.20;;;;;;;2.37;57.30;99909.89;235211;1194;138792;-69
2023/03/01 21:45:47;;;;;;;85.40;48.30;;;;;;;2.33;57.31;99908.20;235464;1193;139204;-68
2023/03/01 21:50:55;;;;;;;82.40;45.40;;;;;;;2.27;57.44;99899.70;235558;1192;138587;-68
2023/03/01 21:56:00;;;;;;;84.90;46.90;;;;;;;2.18;57.63;99902.98;235123;1194;138456;-68
2023/03/01 22:01:09;;;;;;;82.20;48.20;;;;;;;2.14;57.86;99898.67;235394;1195;139437;-69
2023/03/01 22:06:21;;;;;;;89.20;48.60;;;;;;;2.10;57.95;99900.45;235272;1193;139297;-68
2023/03/01 22:11:26;;;;;;;90.80;46.50;;;;;;;2.07;58.08;99897.02;234320;1196;138584;-69
2023/03/01 22:16:34;;;;;;;88.00;48.60;;;;;;;2.04;58.48;99899.51;235180;1192;139513;-70
2023/03/01 22:21:43;;;;;;;92.40;50.00;;;;;;;1.98;58.32;99899.42;235428;1193;139256;-69
2023/03/01 22:26:48;;;;;;;93.50;49.90;;;;;;;1.96;58.53;99898.04;235245;1196;138360;-69
2023/03/01 22:31:53;;;;;;;99.10;54.00;;;;;;;1.94;58.58;99897.36;235369;1193;139435;-69
2023/03/01 22:36:57;;;;;;;99.30;54.10;;;;;;;1.92;58.43;99892.14;235500;1193;138597;-69
2023/03/01 22:42:00;;;;;;;91.70;51.40;;;;;;;1.92;58.63;99893.02;232680;1193;138416;-69
2023/03/01 22:47:04;;;;;;;96.90;52.70;;;;;;;1.88;58.76;99889.57;233937;1193;139232;-69
2023/03/01 22:52:07;;;;;;;106.40;54.50;;;;;;;1.83;58.85;99888.93;235512;1196;138877;-69
2023/03/01 22:57:11;;;;;;;103.40;56.20;;;;;;;1.84;58.98;99887.88;235414;1196;140012;-69
2023/03/01 23:02:14;;;;;;;108.60;57.00;;;;;;;1.82;58.83;99888.95;235501;1196;139253;-69
2023/03/01 23:07:17;;;;;;;107.10;56.60;;;;;;;1.83;58.89;99889.10;235395;1193;138907;-70
2023/03/01 23:12:21;;;;;;;108.20;57.00;;;;;;;1.82;58.90;99886.15;235360;1196;139662;-69
2023/03/01 23:17:24;;;;;;;104.20;55.60;;;;;;;1.75;58.83;99887.98;235284;1192;138741;-69
2023/03/01 23:22:29;;;;;;;104.40;56.10;;;;;;;1.71;59.20;99887.52;235083;1192;138626;-69